Time,TemperatureF,DewpointF,PressureIn,WindDirection,WindDirectionDegrees,WindSpeedMPH,WindSpeedGustMPH,Humidity,HourlyPrecipIn,Conditions,Clouds,dailyrainin,SoftwareType,DateUTC
2013-01-20 00:00:00,45.8,42.5,29.93,West,270,4.0,11.0,88,0.00,,SKC,0.00,VWS V14.01,2013-01-20 05:00:00,
2013-01-20 00:10:00,46.0,43.0,29.93,West,270,4.0,9.0,89,0.00,,SKC,0.00,VWS V14.01,2013-01-20 05:10:00,
2013-01-20 00:20:00,46.0,43.0,29.92,West,270,5.0,9.0,89,0.00,,SKC,0.00,VWS V14.01,2013-01-20 05:20:00,
2013-01-20 00:30:00,46.0,43.0,29.92,West,270,5.0,12.0,89,0.00,,SKC,0.00,VWS V14.01,2013-01-20 05:30:00,
2013-01-20 00:40:00,45.8,42.8,29.91,West,270,5.0,13.0,89,0.00,,SKC,0.00,VWS V14.01,2013-01-20 05:40:00,
2013-01-20 00:50:00,46.0,43.0,29.90,WNW,292,4.0,10.0,89,0.00,,SKC,0.00,VWS V14.01,2013-01-20 05:50:00,
2013-01-20 01:00:00,45.8,42.8,29.90,West,270,4.0,9.0,89,0.00,,SKC,0.00,VWS V14.01,2013-01-20 06:00:00,
2013-01-20 01:10:00,45.8,42.8,29.90,West,270,3.0,7.0,89,0.00,,SKC,0.00,VWS V14.01,2013-01-20 06:10:00,
2013-01-20 01:20:00,45.7,42.7,29.89,West,270,3.0,10.0,89,0.00,,SKC,0.00,VWS V14.01,2013-01-20 06:20:00,
2013-01-20 01:30:00,45.7,42.7,29.89,West,270,4.0,10.0,89,0.00,,SKC,0.00,VWS V14.01,2013-01-20 06:30:00,
2013-01-20 01:40:00,45.5,42.2,29.89,West,270,4.0,9.0,88,0.00,,SKC,0.00,VWS V14.01,2013-01-20 06:40:00,
2013-01-20 01:50:00,45.4,42.1,29.88,West,270,4.0,9.0,88,0.00,,SKC,0.00,VWS V14.01,2013-01-20 06:50:00,
2013-01-20 02:00:00,45.4,42.1,29.88,West,270,5.0,13.0,88,0.00,,SKC,0.00,VWS V14.01,2013-01-20 07:00:00,
2013-01-20 02:10:00,45.4,41.8,29.87,WNW,292,4.0,10.0,87,0.00,,SKC,0.00,VWS V14.01,2013-01-20 07:10:00,
2013-01-20 02:20:00,45.2,41.6,29.86,WNW,292,3.0,8.0,87,0.00,,SKC,0.00,VWS V14.01,2013-01-20 07:20:00,
2013-01-20 02:30:00,45.2,41.6,29.85,West,270,3.0,8.0,87,0.00,,SKC,0.00,VWS V14.01,2013-01-20 07:30:00,
2013-01-20 02:40:00,45.1,41.5,29.84,West,270,3.0,8.0,87,0.00,,SKC,0.00,VWS V14.01,2013-01-20 07:40:00,
2013-01-20 02:50:00,45.1,41.5,29.84,West,270,3.0,6.0,87,0.00,,SKC,0.00,VWS V14.01,2013-01-20 07:50:00,
2013-01-20 03:00:00,45.1,41.2,29.85,West,270,4.0,12.0,86,0.00,,SKC,0.00,VWS V14.01,2013-01-20 08:00:00,
2013-01-20 03:10:00,45.2,41.3,29.84,West,270,4.0,10.0,86,0.00,,SKC,0.00,VWS V14.01,2013-01-20 08:10:00,
2013-01-20 03:20:00,45.1,41.2,29.84,West,270,4.0,11.0,86,0.00,,SKC,0.00,VWS V14.01,2013-01-20 08:20:00,
2013-01-20 03:30:00,45.1,40.9,29.83,West,270,3.0,9.0,85,0.00,,SKC,0.00,VWS V14.01,2013-01-20 08:30:00,
2013-01-20 03:40:00,45.1,40.9,29.82,West,270,4.0,9.0,85,0.00,,SKC,0.00,VWS V14.01,2013-01-20 08:40:00,
2013-01-20 03:50:00,45.1,40.9,29.82,West,270,4.0,12.0,85,0.00,,SKC,0.00,VWS V14.01,2013-01-20 08:50:00,
2013-01-20 04:00:00,45.1,40.9,29.81,West,270,4.0,10.0,85,0.00,,SKC,0.00,VWS V14.01,2013-01-20 09:00:00,
2013-01-20 04:10:00,45.1,40.9,29.82,West,270,4.0,11.0,85,0.00,,SKC,0.00,VWS V14.01,2013-01-20 09:10:00,
2013-01-20 04:20:00,44.9,40.7,29.81,West,270,5.0,13.0,85,0.00,,SKC,0.00,VWS V14.01,2013-01-20 09:20:00,
2013-01-20 04:30:00,44.9,40.7,29.81,West,270,4.0,9.0,85,0.00,,SKC,0.00,VWS V14.01,2013-01-20 09:30:00,
2013-01-20 04:40:00,44.9,40.7,29.81,West,270,4.0,11.0,85,0.00,,SKC,0.00,VWS V14.01,2013-01-20 09:40:00,
2013-01-20 04:50:00,44.8,40.6,29.80,West,270,4.0,11.0,85,0.00,,SKC,0.00,VWS V14.01,2013-01-20 09:50:00,
2013-01-20 05:00:00,44.8,40.6,29.80,West,270,4.0,8.0,85,0.00,,SKC,0.00,VWS V14.01,2013-01-20 10:00:00,
2013-01-20 05:10:00,44.6,40.4,29.79,West,270,4.0,10.0,85,0.00,,SKC,0.00,VWS V14.01,2013-01-20 10:10:00,
2013-01-20 05:20:00,44.6,40.4,29.79,West,270,4.0,9.0,85,0.00,,SKC,0.00,VWS V14.01,2013-01-20 10:20:00,
2013-01-20 05:30:00,44.5,40.3,29.78,West,270,4.0,8.0,85,0.00,,SKC,0.00,VWS V14.01,2013-01-20 10:30:00,
2013-01-20 05:40:00,44.5,40.6,29.78,West,270,3.0,9.0,86,0.00,,SKC,0.00,VWS V14.01,2013-01-20 10:40:00,
2013-01-20 05:50:00,44.3,40.4,29.77,West,270,3.0,7.0,86,0.00,,SKC,0.00,VWS V14.01,2013-01-20 10:50:00,
2013-01-20 06:00:00,44.2,40.3,29.76,West,270,4.0,10.0,86,0.00,,SKC,0.00,VWS V14.01,2013-01-20 11:00:00,
2013-01-20 06:10:00,44.2,40.3,29.76,West,270,4.0,10.0,86,0.00,,SKC,0.00,VWS V14.01,2013-01-20 11:10:00,
2013-01-20 06:20:00,44.2,40.3,29.75,West,270,4.0,11.0,86,0.00,,SKC,0.00,VWS V14.01,2013-01-20 11:20:00,
2013-01-20 06:30:00,44.2,40.0,29.75,West,270,4.0,9.0,85,0.00,,SKC,0.00,VWS V14.01,2013-01-20 11:30:00,
2013-01-20 06:40:00,44.3,40.1,29.74,West,270,4.0,10.0,85,0.00,,SKC,0.00,VWS V14.01,2013-01-20 11:40:00,
2013-01-20 06:50:00,44.2,40.0,29.74,West,270,4.0,11.0,85,0.00,,SKC,0.00,VWS V14.01,2013-01-20 11:50:00,
2013-01-20 07:00:00,44.2,40.3,29.74,West,270,3.0,11.0,86,0.00,,SKC,0.00,VWS V14.01,2013-01-20 12:00:00,
2013-01-20 07:10:00,44.1,40.2,29.74,WNW,292,4.0,9.0,86,0.00,,SKC,0.00,VWS V14.01,2013-01-20 12:10:00,
2013-01-20 07:20:00,44.1,40.2,29.74,West,270,4.0,9.0,86,0.00,,SKC,0.00,VWS V14.01,2013-01-20 12:20:00,
2013-01-20 07:30:00,44.1,40.2,29.74,West,270,4.0,10.0,86,0.00,,SKC,0.00,VWS V14.01,2013-01-20 12:30:00,
2013-01-20 07:40:00,44.1,40.2,29.74,West,270,4.0,11.0,86,0.00,,SKC,0.00,VWS V14.01,2013-01-20 12:40:00,
2013-01-20 07:50:00,44.1,40.5,29.74,West,270,3.0,7.0,87,0.00,,SKC,0.00,VWS V14.01,2013-01-20 12:50:00,
2013-01-20 08:00:00,44.1,40.5,29.73,West,270,4.0,8.0,87,0.00,,SKC,0.00,VWS V14.01,2013-01-20 13:00:00,
2013-01-20 08:10:00,44.1,40.5,29.73,West,270,4.0,8.0,87,0.00,,SKC,0.00,VWS V14.01,2013-01-20 13:10:00,
2013-01-20 08:20:00,44.2,40.6,29.73,West,270,4.0,11.0,87,0.00,,SKC,0.00,VWS V14.01,2013-01-20 13:20:00,
2013-01-20 08:30:00,44.5,40.9,29.73,West,270,4.0,9.0,87,0.00,,SKC,0.00,VWS V14.01,2013-01-20 13:30:00,
2013-01-20 08:44:00,44.6,40.7,29.74,WNW,303,5.0,6.0,86,0.00,,SKC,0.00,VWS V14.01,2013-01-20 13:44:00,
2013-01-20 08:49:00,44.8,40.9,29.74,WNW,291,2.0,7.0,86,0.00,,SKC,0.00,VWS V14.01,2013-01-20 13:49:00,
2013-01-20 08:54:00,44.9,41.0,29.74,West,271,3.0,9.0,86,0.00,,SKC,0.00,VWS V14.01,2013-01-20 13:54:00,
2013-01-20 09:00:00,44.9,41.0,29.73,West,271,4.0,9.0,86,0.00,,SKC,0.00,VWS V14.01,2013-01-20 14:00:00,
2013-01-20 09:05:00,45.1,41.2,29.73,WNW,286,2.0,7.0,86,0.00,,SKC,0.00,VWS V14.01,2013-01-20 14:05:00,
2013-01-20 09:10:00,45.2,41.3,29.73,West,273,3.0,7.0,86,0.00,,SKC,0.00,VWS V14.01,2013-01-20 14:10:00,
2013-01-20 09:15:00,45.2,41.3,29.73,West,275,2.0,7.0,86,0.00,,SKC,0.00,VWS V14.01,2013-01-20 14:15:00,
2013-01-20 09:20:00,45.4,41.5,29.74,West,265,6.0,9.0,86,0.00,,SKC,0.00,VWS V14.01,2013-01-20 14:20:00,
2013-01-20 09:25:00,45.5,41.6,29.73,West,269,2.0,7.0,86,0.00,,SKC,0.00,VWS V14.01,2013-01-20 14:25:00,
2013-01-20 09:30:00,45.7,41.8,29.74,WSW,244,4.0,7.0,86,0.00,,SKC,0.00,VWS V14.01,2013-01-20 14:30:00,
2013-01-20 09:36:00,45.7,41.8,29.74,West,273,2.0,8.0,86,0.00,,SKC,0.00,VWS V14.01,2013-01-20 14:36:00,
2013-01-20 09:41:00,45.8,41.5,29.74,West,271,3.0,8.0,85,0.00,,SKC,0.00,VWS V14.01,2013-01-20 14:41:00,
2013-01-20 09:46:00,46.0,41.8,29.74,West,269,4.0,9.0,85,0.00,,SKC,0.00,VWS V14.01,2013-01-20 14:46:00,
2013-01-20 09:51:00,46.1,41.8,29.74,WNW,292,2.0,9.0,85,0.00,,SKC,0.00,VWS V14.01,2013-01-20 14:51:00,
2013-01-20 09:56:00,46.1,41.8,29.74,WSW,254,4.0,7.0,85,0.00,,SKC,0.00,VWS V14.01,2013-01-20 14:56:00,
2013-01-20 10:01:00,46.2,42.0,29.74,WNW,299,2.0,2.0,85,0.00,,SKC,0.00,VWS V14.01,2013-01-20 15:01:00,
2013-01-20 10:10:00,46.4,42.1,29.74,West,270,3.0,7.0,85,0.00,,SKC,0.00,VWS V14.01,2013-01-20 15:10:00,
2013-01-20 10:29:00,46.7,42.4,29.74,West,261,2.0,3.0,85,0.00,,SKC,0.00,VWS V14.01,2013-01-20 15:29:00,
2013-01-20 10:34:00,46.8,42.5,29.73,West,269,3.0,8.0,85,0.00,,SKC,0.00,VWS V14.01,2013-01-20 15:34:00,
2013-01-20 10:39:00,46.8,42.5,29.73,WNW,282,4.0,9.0,85,0.00,,SKC,0.00,VWS V14.01,2013-01-20 15:39:00,
2013-01-20 10:45:00,47.0,42.7,29.73,West,264,4.0,5.0,85,0.00,,SKC,0.00,VWS V14.01,2013-01-20 15:45:00,
2013-01-20 10:50:00,47.0,42.4,29.72,West,261,4.0,6.0,84,0.00,,SKC,0.00,VWS V14.01,2013-01-20 15:50:00,
2013-01-20 10:55:00,47.0,42.4,29.72,WSW,247,2.0,6.0,84,0.00,,SKC,0.00,VWS V14.01,2013-01-20 15:55:00,
2013-01-20 11:00:00,47.0,42.4,29.72,West,269,3.0,6.0,84,0.00,,SKC,0.00,VWS V14.01,2013-01-20 16:00:00,
2013-01-20 11:05:00,47.1,42.5,29.71,West,263,6.0,7.0,84,0.00,,SKC,0.00,VWS V14.01,2013-01-20 16:05:00,
2013-01-20 11:10:00,47.0,42.4,29.71,West,272,1.0,8.0,84,0.00,,SKC,0.00,VWS V14.01,2013-01-20 16:10:00,
2013-01-20 11:15:00,47.0,42.1,29.70,West,261,4.0,7.0,83,0.00,,SKC,0.00,VWS V14.01,2013-01-20 16:15:00,
2013-01-20 11:20:00,47.0,42.1,29.70,West,279,2.0,8.0,83,0.00,,SKC,0.00,VWS V14.01,2013-01-20 16:20:00,
2013-01-20 11:25:00,47.0,42.1,29.70,WSW,249,5.0,6.0,83,0.00,,SKC,0.00,VWS V14.01,2013-01-20 16:25:00,
2013-01-20 11:30:00,47.0,42.1,29.69,WSW,242,2.0,8.0,83,0.00,,SKC,0.00,VWS V14.01,2013-01-20 16:30:00,
2013-01-20 11:36:00,47.1,42.2,29.69,West,271,6.0,6.0,83,0.00,,SKC,0.00,VWS V14.01,2013-01-20 16:36:00,
2013-01-20 11:41:00,47.1,41.9,29.69,West,270,2.0,11.0,82,0.00,,SKC,0.00,VWS V14.01,2013-01-20 16:41:00,
2013-01-20 11:46:00,47.1,41.6,29.68,WSW,247,4.0,7.0,81,0.00,,SKC,0.00,VWS V14.01,2013-01-20 16:46:00,
2013-01-20 11:51:00,47.0,41.2,29.68,West,267,2.0,10.0,80,0.00,,SKC,0.00,VWS V14.01,2013-01-20 16:51:00,
2013-01-20 11:56:00,47.0,40.8,29.68,West,280,4.0,9.0,79,0.00,,SKC,0.00,VWS V14.01,2013-01-20 16:56:00,
2013-01-20 12:01:00,47.0,40.5,29.68,WSW,250,4.0,9.0,78,0.00,,SKC,0.00,VWS V14.01,2013-01-20 17:01:00,
2013-01-20 12:06:00,47.3,40.8,29.68,West,266,2.0,6.0,78,0.00,,SKC,0.00,VWS V14.01,2013-01-20 17:06:00,
2013-01-20 12:11:00,47.4,40.9,29.67,WNW,300,4.0,9.0,78,0.00,,SKC,0.00,VWS V14.01,2013-01-20 17:11:00,
2013-01-20 12:16:00,47.4,40.9,29.67,NW,305,3.0,8.0,78,0.00,,SKC,0.00,VWS V14.01,2013-01-20 17:16:00,
2013-01-20 12:21:00,47.4,40.9,29.67,WSW,254,6.0,8.0,78,0.00,,SKC,0.00,VWS V14.01,2013-01-20 17:21:00,
2013-01-20 12:26:00,47.3,40.5,29.66,WSW,254,4.0,8.0,77,0.00,,SKC,0.00,VWS V14.01,2013-01-20 17:26:00,
2013-01-20 12:31:00,47.3,40.5,29.66,WNW,301,6.0,6.0,77,0.00,,SKC,0.00,VWS V14.01,2013-01-20 17:31:00,
2013-01-20 12:36:00,47.3,40.8,29.66,West,261,3.0,8.0,78,0.00,,SKC,0.00,VWS V14.01,2013-01-20 17:36:00,
2013-01-20 12:41:00,47.3,40.8,29.66,West,271,3.0,3.0,78,0.00,,SKC,0.00,VWS V14.01,2013-01-20 17:41:00,
2013-01-20 12:47:00,47.3,40.8,29.66,West,271,5.0,8.0,78,0.00,,SKC,0.00,VWS V14.01,2013-01-20 17:47:00,
2013-01-20 12:52:00,47.4,40.6,29.66,West,269,3.0,6.0,77,0.00,,SKC,0.00,VWS V14.01,2013-01-20 17:52:00,
2013-01-20 12:57:00,47.4,40.6,29.66,WSW,242,10.0,10.0,77,0.00,,SKC,0.00,VWS V14.01,2013-01-20 17:57:00,
2013-01-20 13:02:00,47.6,40.4,29.66,West,277,6.0,6.0,76,0.00,,SKC,0.00,VWS V14.01,2013-01-20 18:02:00,
2013-01-20 13:07:00,47.6,40.4,29.66,West,269,2.0,9.0,76,0.00,,SKC,0.00,VWS V14.01,2013-01-20 18:07:00,
2013-01-20 13:12:00,47.7,40.8,29.66,West,278,2.0,6.0,77,0.00,,SKC,0.00,VWS V14.01,2013-01-20 18:12:00,
2013-01-20 13:17:00,47.7,41.2,29.66,West,266,0.0,7.0,78,0.00,,SKC,0.00,VWS V14.01,2013-01-20 18:17:00,
2013-01-20 13:22:00,47.7,41.2,29.66,West,264,3.0,6.0,78,0.00,,SKC,0.00,VWS V14.01,2013-01-20 18:22:00,
2013-01-20 13:27:00,47.9,41.7,29.65,West,259,1.0,7.0,79,0.00,,SKC,0.00,VWS V14.01,2013-01-20 18:27:00,
2013-01-20 13:32:00,47.9,41.7,29.65,WSW,240,1.0,6.0,79,0.00,,SKC,0.00,VWS V14.01,2013-01-20 18:32:00,
2013-01-20 13:37:00,47.9,41.7,29.65,WSW,252,3.0,6.0,79,0.00,,SKC,0.00,VWS V14.01,2013-01-20 18:37:00,
2013-01-20 13:42:00,47.9,41.7,29.65,West,263,1.0,4.0,79,0.00,,SKC,0.00,VWS V14.01,2013-01-20 18:42:00,
2013-01-20 13:48:00,47.9,41.7,29.65,West,266,1.0,7.0,79,0.00,,SKC,0.00,VWS V14.01,2013-01-20 18:48:00,
2013-01-20 13:53:00,48.0,41.8,29.65,WSW,254,3.0,5.0,79,0.00,,SKC,0.00,VWS V14.01,2013-01-20 18:53:00,
2013-01-20 13:58:00,48.5,41.6,29.66,WNW,292,0.0,5.0,77,0.00,,SKC,0.00,VWS V14.01,2013-01-20 18:58:00,
2013-01-20 14:03:00,48.9,41.3,29.66,WSW,248,2.0,6.0,75,0.00,,SKC,0.00,VWS V14.01,2013-01-20 19:03:00,
2013-01-20 14:08:00,49.2,41.3,29.66,WNW,291,4.0,7.0,74,0.00,,SKC,0.00,VWS V14.01,2013-01-20 19:08:00,
2013-01-20 14:13:00,49.5,41.2,29.66,West,273,5.0,6.0,73,0.00,,SKC,0.00,VWS V14.01,2013-01-20 19:13:00,
2013-01-20 14:18:00,49.6,41.3,29.66,West,281,1.0,10.0,73,0.00,,SKC,0.00,VWS V14.01,2013-01-20 19:18:00,
2013-01-20 14:23:00,49.6,41.3,29.66,SSW,193,3.0,6.0,73,0.00,,SKC,0.00,VWS V14.01,2013-01-20 19:23:00,
2013-01-20 14:28:00,49.8,41.5,29.66,West,279,3.0,6.0,73,0.00,,SKC,0.00,VWS V14.01,2013-01-20 19:28:00,
2013-01-20 14:33:00,49.5,41.2,29.67,West,263,4.0,7.0,73,0.00,,SKC,0.00,VWS V14.01,2013-01-20 19:33:00,
2013-01-20 14:38:00,49.2,41.3,29.66,West,276,3.0,10.0,74,0.00,,SKC,0.00,VWS V14.01,2013-01-20 19:38:00,
2013-01-20 14:43:00,48.8,41.6,29.67,WSW,244,2.0,8.0,76,0.00,,SKC,0.00,VWS V14.01,2013-01-20 19:43:00,
2013-01-20 14:48:00,48.5,42.0,29.67,WNW,285,4.0,8.0,78,0.00,,SKC,0.00,VWS V14.01,2013-01-20 19:48:00,
2013-01-20 14:54:00,48.6,41.7,29.66,WSW,240,2.0,7.0,77,0.00,,SKC,0.00,VWS V14.01,2013-01-20 19:54:00,
2013-01-20 14:59:00,48.8,41.6,29.67,West,269,3.0,7.0,76,0.00,,SKC,0.00,VWS V14.01,2013-01-20 19:59:00,
2013-01-20 15:04:00,48.8,41.6,29.67,WNW,286,1.0,5.0,76,0.00,,SKC,0.00,VWS V14.01,2013-01-20 20:04:00,
2013-01-20 15:09:00,48.8,41.9,29.67,WNW,300,4.0,6.0,77,0.00,,SKC,0.00,VWS V14.01,2013-01-20 20:09:00,
2013-01-20 15:14:00,48.3,41.1,29.67,WNW,284,1.0,6.0,76,0.00,,SKC,0.00,VWS V14.01,2013-01-20 20:14:00,
2013-01-20 15:19:00,48.0,40.8,29.68,WNW,293,3.0,6.0,76,0.00,,SKC,0.00,VWS V14.01,2013-01-20 20:19:00,
2013-01-20 15:24:00,47.9,40.4,29.68,WNW,289,1.0,3.0,75,0.00,,SKC,0.00,VWS V14.01,2013-01-20 20:24:00,
2013-01-20 15:29:00,47.9,36.7,29.68,West,271,6.0,7.0,65,0.00,,SKC,0.00,VWS V14.01,2013-01-20 20:29:00,
2013-01-20 15:34:00,48.5,33.5,29.68,West,272,11.0,11.0,56,0.00,,SKC,0.00,VWS V14.01,2013-01-20 20:34:00,
2013-01-20 15:39:00,48.9,32.1,29.68,West,271,1.0,11.0,52,0.00,,SKC,0.00,VWS V14.01,2013-01-20 20:39:00,
2013-01-20 15:44:00,49.4,31.1,29.68,West,273,3.0,10.0,49,0.00,,SKC,0.00,VWS V14.01,2013-01-20 20:44:00,
2013-01-20 15:49:00,49.6,30.7,29.68,West,280,2.0,10.0,48,0.00,,SKC,0.00,VWS V14.01,2013-01-20 20:49:00,
2013-01-20 15:55:00,49.8,29.9,29.69,WSW,257,1.0,12.0,46,0.00,,SKC,0.00,VWS V14.01,2013-01-20 20:55:00,
2013-01-20 16:00:00,49.9,29.4,29.69,West,265,5.0,12.0,45,0.00,,SKC,0.00,VWS V14.01,2013-01-20 21:00:00,
2013-01-20 16:05:00,50.1,29.6,29.69,SSW,202,3.0,12.0,45,0.00,,SKC,0.00,VWS V14.01,2013-01-20 21:05:00,
2013-01-20 16:10:00,50.1,29.6,29.70,WSW,241,3.0,12.0,45,0.00,,SKC,0.00,VWS V14.01,2013-01-20 21:10:00,
2013-01-20 16:15:00,50.1,29.6,29.70,SSE,161,2.0,10.0,45,0.00,,SKC,0.00,VWS V14.01,2013-01-20 21:15:00,
2013-01-20 16:20:00,49.9,28.9,29.70,West,259,2.0,10.0,44,0.00,,SKC,0.00,VWS V14.01,2013-01-20 21:20:00,
2013-01-20 16:25:00,49.9,28.9,29.70,West,277,0.0,5.0,44,0.00,,SKC,0.00,VWS V14.01,2013-01-20 21:25:00,
2013-01-20 16:31:00,49.8,28.8,29.71,West,274,1.0,5.0,44,0.00,,SKC,0.00,VWS V14.01,2013-01-20 21:31:00,
2013-01-20 16:36:00,49.8,28.8,29.71,West,271,0.0,4.0,44,0.00,,SKC,0.00,VWS V14.01,2013-01-20 21:36:00,
2013-01-20 16:41:00,49.6,28.0,29.71,West,269,6.0,6.0,43,0.00,,SKC,0.00,VWS V14.01,2013-01-20 21:41:00,
2013-01-20 16:46:00,49.5,27.4,29.71,WNW,296,0.0,6.0,42,0.00,,SKC,0.00,VWS V14.01,2013-01-20 21:46:00,
2013-01-20 16:51:00,49.4,26.7,29.71,West,266,3.0,6.0,41,0.00,,SKC,0.00,VWS V14.01,2013-01-20 21:51:00,
2013-01-20 16:57:00,49.2,26.5,29.71,NW,313,2.0,7.0,41,0.00,,SKC,0.00,VWS V14.01,2013-01-20 21:57:00,
2013-01-20 17:02:00,49.2,25.9,29.72,NE,54,5.0,5.0,40,0.00,,SKC,0.00,VWS V14.01,2013-01-20 22:02:00,
2013-01-20 17:07:00,49.1,25.2,29.72,WNW,289,2.0,7.0,39,0.00,,SKC,0.00,VWS V14.01,2013-01-20 22:07:00,
2013-01-20 17:13:00,48.8,23.7,29.73,West,281,0.0,13.0,37,0.00,,SKC,0.00,VWS V14.01,2013-01-20 22:13:00,
2013-01-20 17:18:00,48.6,23.5,29.73,WNW,300,2.0,13.0,37,0.00,,SKC,0.00,VWS V14.01,2013-01-20 22:18:00,
2013-01-20 17:23:00,48.5,23.4,29.73,WNW,294,2.0,4.0,37,0.00,,SKC,0.00,VWS V14.01,2013-01-20 22:23:00,
2013-01-20 17:28:00,48.3,22.6,29.74,WNW,282,1.0,13.0,36,0.00,,SKC,0.00,VWS V14.01,2013-01-20 22:28:00,
2013-01-20 17:33:00,48.2,21.9,29.74,West,272,3.0,7.0,35,0.00,,SKC,0.00,VWS V14.01,2013-01-20 22:33:00,
2013-01-20 17:38:00,48.0,21.0,29.75,WNW,290,0.0,7.0,34,0.00,,SKC,0.00,VWS V14.01,2013-01-20 22:38:00,
2013-01-20 17:43:00,47.9,21.6,29.75,West,274,0.0,5.0,35,0.00,,SKC,0.00,VWS V14.01,2013-01-20 22:43:00,
2013-01-20 17:49:00,47.7,21.4,29.75,NNW,338,14.0,14.0,35,0.00,,SKC,0.00,VWS V14.01,2013-01-20 22:49:00,
2013-01-20 17:54:00,47.6,21.3,29.76,NW,309,3.0,8.0,35,0.00,,SKC,0.00,VWS V14.01,2013-01-20 22:54:00,
2013-01-20 17:59:00,47.3,21.0,29.76,West,262,4.0,8.0,35,0.00,,SKC,0.00,VWS V14.01,2013-01-20 22:59:00,
2013-01-20 18:04:00,47.1,21.5,29.76,West,265,3.0,9.0,36,0.00,,SKC,0.00,VWS V14.01,2013-01-20 23:04:00,
2013-01-20 18:09:00,47.1,21.5,29.77,WSW,246,4.0,15.0,36,0.00,,SKC,0.00,VWS V14.01,2013-01-20 23:09:00,
2013-01-20 18:15:00,47.0,22.7,29.77,West,277,8.0,8.0,38,0.00,,SKC,0.00,VWS V14.01,2013-01-20 23:15:00,
2013-01-20 18:20:00,46.8,23.2,29.77,West,270,3.0,12.0,39,0.00,,SKC,0.00,VWS V14.01,2013-01-20 23:20:00,
2013-01-20 18:25:00,46.7,24.8,29.78,West,269,0.0,9.0,42,0.00,,SKC,0.00,VWS V14.01,2013-01-20 23:25:00,
2013-01-20 18:30:00,46.4,25.7,29.78,West,269,2.0,10.0,44,0.00,,SKC,0.00,VWS V14.01,2013-01-20 23:30:00,
2013-01-20 18:36:00,46.2,26.0,29.78,West,273,3.0,9.0,45,0.00,,SKC,0.00,VWS V14.01,2013-01-20 23:36:00,
2013-01-20 18:41:00,46.1,27.0,29.79,West,263,5.0,9.0,47,0.00,,SKC,0.00,VWS V14.01,2013-01-20 23:41:00,
2013-01-20 18:46:00,45.8,27.7,29.79,West,264,1.0,7.0,49,0.00,,SKC,0.00,VWS V14.01,2013-01-20 23:46:00,
2013-01-20 18:52:00,45.7,29.1,29.80,West,267,6.0,6.0,52,0.00,,SKC,0.00,VWS V14.01,2013-01-20 23:52:00,
2013-01-20 18:57:00,45.4,28.8,29.80,SSW,207,2.0,6.0,52,0.00,,SKC,0.00,VWS V14.01,2013-01-20 23:57:00,
2013-01-20 19:02:00,45.1,28.5,29.81,West,267,4.0,4.0,52,0.00,,SKC,0.00,VWS V14.01,2013-01-21 00:02:00,
2013-01-20 19:07:00,44.6,26.6,29.81,West,267,2.0,7.0,49,0.00,,SKC,0.00,VWS V14.01,2013-01-21 00:07:00,
2013-01-20 19:12:00,44.3,23.8,29.81,SW,215,1.0,6.0,44,0.00,,SKC,0.00,VWS V14.01,2013-01-21 00:12:00,
2013-01-20 19:17:00,44.1,22.5,29.82,SSW,209,4.0,7.0,42,0.00,,SKC,0.00,VWS V14.01,2013-01-21 00:17:00,
2013-01-20 19:23:00,43.9,22.3,29.82,SW,225,2.0,5.0,42,0.00,,SKC,0.00,VWS V14.01,2013-01-21 00:23:00,
2013-01-20 19:28:00,43.6,21.5,29.83,SW,227,0.0,6.0,41,0.00,,SKC,0.00,VWS V14.01,2013-01-21 00:28:00,
2013-01-20 19:33:00,43.5,21.4,29.83,WSW,256,9.0,9.0,41,0.00,,SKC,0.00,VWS V14.01,2013-01-21 00:33:00,
2013-01-20 19:38:00,43.2,21.7,29.84,WSW,254,3.0,9.0,42,0.00,,SKC,0.00,VWS V14.01,2013-01-21 00:38:00,
2013-01-20 19:43:00,42.9,22.0,29.84,North,5,1.0,7.0,43,0.00,,SKC,0.00,VWS V14.01,2013-01-21 00:43:00,
2013-01-20 19:48:00,42.6,21.7,29.84,SSW,212,2.0,9.0,43,0.00,,SKC,0.00,VWS V14.01,2013-01-21 00:48:00,
2013-01-20 19:54:00,42.2,20.2,29.85,WNW,287,3.0,7.0,41,0.00,,SKC,0.00,VWS V14.01,2013-01-21 00:54:00,
2013-01-20 19:59:00,41.8,19.3,29.85,SSW,213,2.0,12.0,40,0.00,,SKC,0.00,VWS V14.01,2013-01-21 00:59:00,
2013-01-20 20:04:00,41.5,19.6,29.86,ENE,74,2.0,7.0,41,0.00,,SKC,0.00,VWS V14.01,2013-01-21 01:04:00,
2013-01-20 20:09:00,41.2,19.9,29.86,West,265,1.0,7.0,42,0.00,,SKC,0.00,VWS V14.01,2013-01-21 01:09:00,
2013-01-20 20:15:00,40.8,20.0,29.86,West,266,0.0,7.0,43,0.00,,SKC,0.00,VWS V14.01,2013-01-21 01:15:00,
2013-01-20 20:20:00,40.6,20.4,29.87,WSW,254,2.0,7.0,44,0.00,,SKC,0.00,VWS V14.01,2013-01-21 01:20:00,
2013-01-20 20:25:00,40.3,20.7,29.87,SW,221,2.0,6.0,45,0.00,,SKC,0.00,VWS V14.01,2013-01-21 01:25:00,
2013-01-20 20:30:00,40.1,20.5,29.87,West,275,0.0,6.0,45,0.00,,SKC,0.00,VWS V14.01,2013-01-21 01:30:00,
2013-01-20 20:36:00,39.9,20.3,29.88,South,190,0.0,6.0,45,0.00,,SKC,0.00,VWS V14.01,2013-01-21 01:36:00,
2013-01-20 20:41:00,39.6,19.5,29.88,West,269,3.0,8.0,44,0.00,,SKC,0.00,VWS V14.01,2013-01-21 01:41:00,
2013-01-20 20:46:00,39.5,19.9,29.88,WSW,247,2.0,6.0,45,0.00,,SKC,0.00,VWS V14.01,2013-01-21 01:46:00,
2013-01-20 20:51:00,39.2,20.2,29.88,WSW,253,0.0,6.0,46,0.00,,SKC,0.00,VWS V14.01,2013-01-21 01:51:00,
2013-01-20 20:56:00,39.1,20.6,29.88,WSW,252,1.0,9.0,47,0.00,,SKC,0.00,VWS V14.01,2013-01-21 01:56:00,
2013-01-20 21:01:00,38.9,18.9,29.89,East,86,3.0,9.0,44,0.00,,SKC,0.00,VWS V14.01,2013-01-21 02:01:00,
2013-01-20 21:06:00,38.8,18.2,29.90,SSW,211,1.0,6.0,43,0.00,,SKC,0.00,VWS V14.01,2013-01-21 02:06:00,
2013-01-20 21:12:00,38.5,16.3,29.90,East,94,2.0,5.0,40,0.00,,SKC,0.00,VWS V14.01,2013-01-21 02:12:00,
2013-01-20 21:17:00,38.5,15.7,29.90,West,261,4.0,11.0,39,0.00,,SKC,0.00,VWS V14.01,2013-01-21 02:17:00,
2013-01-20 21:22:00,38.3,16.1,29.90,West,259,3.0,3.0,40,0.00,,SKC,0.00,VWS V14.01,2013-01-21 02:22:00,
2013-01-20 21:27:00,38.2,16.6,29.91,WSW,251,6.0,8.0,41,0.00,,SKC,0.00,VWS V14.01,2013-01-21 02:27:00,
2013-01-20 21:32:00,38.0,17.5,29.91,SSW,203,2.0,4.0,43,0.00,,SKC,0.00,VWS V14.01,2013-01-21 02:32:00,
2013-01-20 21:37:00,37.8,17.9,29.91,WNW,296,2.0,9.0,44,0.00,,SKC,0.00,VWS V14.01,2013-01-21 02:37:00,
2013-01-20 21:42:00,37.6,17.1,29.92,WSW,242,1.0,4.0,43,0.00,,SKC,0.00,VWS V14.01,2013-01-21 02:42:00,
2013-01-20 21:48:00,37.5,17.6,29.91,North,349,1.0,11.0,44,0.00,,SKC,0.00,VWS V14.01,2013-01-21 02:48:00,
2013-01-20 21:53:00,37.2,17.3,29.92,West,264,0.0,6.0,44,0.00,,SKC,0.00,VWS V14.01,2013-01-21 02:53:00,
2013-01-20 21:58:00,37.0,16.1,29.92,WSW,252,4.0,6.0,42,0.00,,SKC,0.00,VWS V14.01,2013-01-21 02:58:00,
2013-01-20 22:03:00,36.8,18.5,29.92,West,265,0.0,5.0,47,0.00,,SKC,0.00,VWS V14.01,2013-01-21 03:03:00,
2013-01-20 22:08:00,36.6,18.8,29.92,NW,316,1.0,5.0,48,0.00,,SKC,0.00,VWS V14.01,2013-01-21 03:08:00,
2013-01-20 22:14:00,36.3,19.0,29.92,WSW,252,0.0,3.0,49,0.00,,SKC,0.00,VWS V14.01,2013-01-21 03:14:00,
2013-01-20 22:19:00,36.0,18.7,29.93,WSW,256,0.0,5.0,49,0.00,,SKC,0.00,VWS V14.01,2013-01-21 03:19:00,
2013-01-20 22:24:00,35.9,19.1,29.92,WSW,243,6.0,6.0,50,0.00,,SKC,0.00,VWS V14.01,2013-01-21 03:24:00,
2013-01-20 22:30:00,35.6,18.3,29.93,SW,225,2.0,7.0,49,0.00,,SKC,0.00,VWS V14.01,2013-01-21 03:30:00,
2013-01-20 22:40:00,35.3,18.5,29.93,WSW,248,1.0,7.0,50,0.00,,SKC,0.00,VWS V14.01,2013-01-21 03:40:00,
2013-01-20 22:50:00,34.9,18.2,29.93,South,180,2.0,6.0,50,0.00,,SKC,0.00,VWS V14.01,2013-01-21 03:50:00,
2013-01-20 23:00:00,34.6,17.9,29.94,SW,225,2.0,9.0,50,0.00,,SKC,0.00,VWS V14.01,2013-01-21 04:00:00,
2013-01-20 23:10:00,34.3,18.1,29.94,SSW,202,1.0,6.0,51,0.00,,SKC,0.00,VWS V14.01,2013-01-21 04:10:00,
2013-01-20 23:20:00,33.8,18.0,29.95,WSW,248,2.0,8.0,52,0.00,,SKC,0.00,VWS V14.01,2013-01-21 04:20:00,
2013-01-20 23:30:00,33.5,17.8,29.95,SW,225,2.0,10.0,52,0.00,,SKC,0.00,VWS V14.01,2013-01-21 04:30:00,
2013-01-20 23:40:00,33.2,17.5,29.95,WSW,248,2.0,7.0,52,0.00,,SKC,0.00,VWS V14.01,2013-01-21 04:40:00,
2013-01-20 23:50:00,32.9,17.7,29.96,West,270,1.0,7.0,53,0.00,,SKC,0.00,VWS V14.01,2013-01-21 04:50:00,